Time;durP1;ratioP1;P1;durP2;ratioP2;P2;SDS_P1;SDS_P2;PMS_P1;PMS_P2;Temp;Humidity;BMP_temperature;BMP_pressure;BME280_temperature;BME280_humidity;BME280_pressure;Samples;Min_cycle;Max_cycle;Signal;HPM_P1;HPM_P2
2023/07/03 00:01:58;;;;;;;15.30;7.37;;;13.70;99.90;;;;;;5027442;28;20519;-53
2023/07/03 00:04:25;;;;;;;13.83;7.17;;;13.70;99.90;;;;;;5027053;28;20474;-54
2023/07/03 00:06:52;;;;;;;16.70;6.87;;;13.70;99.90;;;;;;5029369;28;20463;-53
2023/07/03 00:09:19;;;;;;;12.53;6.63;;;13.60;99.90;;;;;;5025253;28;20485;-54
2023/07/03 00:11:45;;;;;;;14.60;6.57;;;13.60;99.90;;;;;;5027813;28;20565;-54
2023/07/03 00:14:12;;;;;;;13.07;7.03;;;13.50;99.90;;;;;;5030258;28;20538;-54
2023/07/03 00:16:40;;;;;;;10.20;7.10;;;13.50;99.90;;;;;;5031665;28;20526;-53
2023/07/03 00:19:06;;;;;;;13.63;7.03;;;13.40;99.90;;;;;;5041917;28;20501;-54
2023/07/03 00:21:43;;;;;;;15.80;7.83;;;13.30;99.90;;;;;;5028074;28;20569;-54
2023/07/03 00:24:10;;;;;;;14.70;7.47;;;13.30;99.90;;;;;;5029786;28;20465;-54
2023/07/03 00:26:37;;;;;;;15.23;7.17;;;13.20;99.90;;;;;;5031692;28;20450;-54
2023/07/03 00:29:03;;;;;;;14.13;7.70;;;13.30;99.90;;;;;;5033122;28;20522;-54
2023/07/03 00:31:30;;;;;;;11.83;7.10;;;13.20;99.90;;;;;;5038081;28;21082;-54
2023/07/03 00:33:58;;;;;;;13.17;7.90;;;13.20;99.90;;;;;;5030460;28;20542;-54
2023/07/03 00:36:25;;;;;;;11.20;7.07;;;13.20;99.90;;;;;;5029880;28;20876;-54
2023/07/03 00:38:57;;;;;;;12.83;6.90;;;13.10;99.90;;;;;;5028405;28;20501;-54
2023/07/03 00:41:23;;;;;;;10.63;6.77;;;13.10;99.90;;;;;;5031084;28;20983;-54
2023/07/03 00:43:50;;;;;;;11.40;7.03;;;13.00;99.90;;;;;;5029656;28;20573;-54
2023/07/03 00:46:17;;;;;;;14.90;5.43;;;12.90;99.90;;;;;;5030824;28;20566;-54
2023/07/03 00:48:44;;;;;;;6.53;5.30;;;13.10;99.90;;;;;;5027895;28;20459;-52
2023/07/03 00:51:14;;;;;;;13.00;5.97;;;13.00;99.90;;;;;;5031079;28;20558;-55
2023/07/03 00:53:41;;;;;;;10.83;5.80;;;12.90;99.90;;;;;;5031856;28;20477;-54
2023/07/03 00:56:08;;;;;;;10.67;5.50;;;12.90;99.90;;;;;;5038858;28;21035;-53
2023/07/03 00:58:34;;;;;;;7.60;5.23;;;13.00;99.90;;;;;;5034671;28;20529;-53
2023/07/03 01:01:08;;;;;;;10.87;5.83;;;13.00;99.90;;;;;;5037332;28;20549;-53
2023/07/03 01:03:39;;;;;;;11.83;6.47;;;12.90;99.90;;;;;;5033562;28;20489;-55
2023/07/03 01:06:10;;;;;;;11.13;6.00;;;12.90;99.90;;;;;;5031683;28;20557;-53
2023/07/03 01:08:40;;;;;;;14.83;5.67;;;12.90;99.90;;;;;;5033172;28;21046;-55
2023/07/03 01:11:07;;;;;;;18.33;6.70;;;12.90;99.90;;;;;;5029912;28;20590;-52
2023/07/03 01:13:36;;;;;;;11.77;5.70;;;12.90;99.90;;;;;;5032856;28;20788;-53
2023/07/03 01:16:05;;;;;;;6.93;5.60;;;12.90;99.90;;;;;;5032697;28;21187;-53
2023/07/03 01:18:33;;;;;;;10.37;6.50;;;13.00;99.90;;;;;;5033553;28;20497;-54
2023/07/03 01:21:04;;;;;;;13.43;6.30;;;13.10;99.90;;;;;;5034815;28;21051;-54
2023/07/03 01:23:37;;;;;;;16.00;6.70;;;13.10;99.90;;;;;;5036944;28;20576;-54
2023/07/03 01:26:06;;;;;;;15.33;6.10;;;13.20;99.90;;;;;;5037577;28;20557;-54
2023/07/03 01:28:35;;;;;;;10.43;5.83;;;13.20;99.90;;;;;;5033039;28;21116;-54
2023/07/03 01:31:07;;;;;;;19.10;5.57;;;13.30;99.90;;;;;;5031484;28;20460;-53
2023/07/03 01:33:40;;;;;;;14.00;6.10;;;13.30;99.90;;;;;;5032148;28;20463;-54
2023/07/03 01:36:07;;;;;;;14.73;5.90;;;13.40;99.90;;;;;;5033862;28;21150;-53
2023/07/03 01:38:34;;;;;;;10.87;6.20;;;13.50;99.90;;;;;;5027671;28;20514;-54
2023/07/03 01:41:02;;;;;;;10.30;6.37;;;13.50;99.90;;;;;;5031191;28;20490;-54
2023/07/03 01:43:31;;;;;;;7.10;5.43;;;13.50;99.90;;;;;;5039098;28;20478;-54
2023/07/03 01:45:57;;;;;;;11.53;6.90;;;13.60;99.90;;;;;;5031896;28;20490;-55
2023/07/03 01:48:24;;;;;;;11.77;6.33;;;13.60;99.90;;;;;;5033701;28;20537;-53
2023/07/03 01:50:51;;;;;;;16.93;6.97;;;13.60;99.90;;;;;;5032886;28;20493;-53
2023/07/03 01:53:25;;;;;;;11.03;7.07;;;13.60;99.90;;;;;;5031222;28;20450;-54
2023/07/03 01:55:56;;;;;;;16.30;6.70;;;13.60;99.90;;;;;;5035230;28;20463;-54
2023/07/03 01:58:29;;;;;;;27.40;6.87;;;13.60;99.90;;;;;;5030494;28;20494;-53
2023/07/03 02:01:02;;;;;;;11.33;6.73;;;13.60;99.90;;;;;;5031298;28;20549;-53
2023/07/03 02:03:33;;;;;;;9.27;6.00;;;13.70;99.90;;;;;;5034292;28;20514;-53
2023/07/03 02:06:02;;;;;;;9.90;5.93;;;13.60;99.90;;;;;;5032811;28;20546;-53
2023/07/03 02:08:31;;;;;;;9.30;5.73;;;13.70;99.90;;;;;;5029169;28;20502;-53
2023/07/03 02:10:57;;;;;;;13.43;6.33;;;13.70;99.90;;;;;;5033723;28;20498;-54
2023/07/03 02:13:24;;;;;;;11.23;5.90;;;13.70;99.90;;;;;;5024602;28;20521;-54
2023/07/03 02:15:51;;;;;;;12.50;6.63;;;13.80;99.90;;;;;;5031761;28;20552;-54
2023/07/03 02:18:23;;;;;;;9.27;6.53;;;13.80;99.90;;;;;;5038463;28;20486;-54
2023/07/03 02:20:50;;;;;;;10.73;6.33;;;13.90;99.90;;;;;;5034020;28;20459;-53
2023/07/03 02:23:16;;;;;;;8.77;6.47;;;13.90;99.90;;;;;;5032743;28;20490;-54
2023/07/03 02:25:44;;;;;;;12.90;6.73;;;13.90;99.90;;;;;;5031314;28;20494;-54
2023/07/03 02:28:11;;;;;;;17.50;6.60;;;13.90;99.90;;;;;;5032470;28;20462;-54
2023/07/03 02:30:38;;;;;;;14.90;6.47;;;13.90;99.90;;;;;;5032586;28;20498;-54
2023/07/03 02:33:04;;;;;;;16.27;6.70;;;13.90;99.90;;;;;;5038062;28;20509;-53
2023/07/03 02:35:32;;;;;;;15.00;6.60;;;13.90;99.90;;;;;;5034863;28;20491;-54
2023/07/03 02:37:59;;;;;;;12.70;6.77;;;13.90;99.90;;;;;;5030501;28;21026;-54
2023/07/03 02:40:25;;;;;;;19.47;7.53;;;13.90;99.90;;;;;;5032368;28;20489;-53
2023/07/03 02:42:52;;;;;;;7.83;5.63;;;13.90;99.90;;;;;;5045046;28;20482;-54
2023/07/03 02:45:19;;;;;;;12.60;6.80;;;14.00;99.90;;;;;;5029552;28;20491;-53
2023/07/03 02:47:46;;;;;;;10.40;7.00;;;13.90;1.40;;;;;;5033224;28;20462;-54
2023/07/03 02:50:12;;;;;;;13.40;7.20;;;14.00;1.40;;;;;;5035857;28;20558;-55
2023/07/03 02:52:40;;;;;;;11.13;7.50;;;14.10;99.90;;;;;;5034980;28;20494;-54
2023/07/03 02:55:08;;;;;;;13.73;7.30;;;14.10;99.90;;;;;;5030860;28;20491;-53
2023/07/03 02:57:34;;;;;;;13.27;6.90;;;14.20;99.90;;;;;;5035728;28;20887;-53
2023/07/03 03:00:01;;;;;;;11.90;6.67;;;14.20;99.90;;;;;;5033983;28;20502;-54
2023/07/03 03:02:28;;;;;;;18.40;6.63;;;14.30;99.90;;;;;;5030164;28;20494;-54
2023/07/03 03:04:54;;;;;;;15.67;6.47;;;14.40;99.90;;;;;;5030237;28;20491;-53
2023/07/03 03:07:21;;;;;;;9.73;6.27;;;14.40;99.90;;;;;;5032483;28;20885;-54
2023/07/03 03:09:49;;;;;;;10.90;6.30;;;14.40;99.90;;;;;;5036367;28;20502;-53
2023/07/03 03:12:15;;;;;;;15.70;7.90;;;14.50;99.90;;;;;;5036715;28;20514;-53
2023/07/03 03:14:42;;;;;;;16.80;7.10;;;14.50;99.90;;;;;;5032140;28;20550;-52
2023/07/03 03:17:08;;;;;;;14.67;6.80;;;14.60;99.90;;;;;;5024475;28;20475;-53
2023/07/03 03:19:35;;;;;;;17.73;6.60;;;14.50;99.90;;;;;;5030365;28;20499;-55
2023/07/03 03:22:01;;;;;;;13.27;7.03;;;14.60;99.90;;;;;;5031812;28;20894;-54
2023/07/03 03:24:28;;;;;;;11.93;6.43;;;14.60;99.90;;;;;;5031457;28;20518;-54
2023/07/03 03:26:56;;;;;;;9.03;6.23;;;14.60;99.90;;;;;;5032664;28;20478;-54
2023/07/03 03:29:22;;;;;;;9.77;6.30;;;14.70;99.90;;;;;;5032415;28;20459;-55
2023/07/03 03:31:49;;;;;;;19.10;7.67;;;14.70;99.90;;;;;;5030781;28;20540;-54
2023/07/03 03:34:16;;;;;;;12.70;7.33;;;14.80;99.90;;;;;;5033486;28;20952;-53
2023/07/03 03:36:43;;;;;;;12.63;6.83;;;14.80;99.90;;;;;;5032073;28;20496;-53
2023/07/03 03:39:10;;;;;;;10.90;6.93;;;14.80;99.90;;;;;;5019752;28;20505;-54
2023/07/03 03:41:36;;;;;;;14.43;7.97;;;14.80;99.90;;;;;;5036228;28;20524;-53
2023/07/03 03:44:04;;;;;;;17.90;8.63;;;14.90;99.90;;;;;;5022697;28;20505;-54
2023/07/03 03:46:31;;;;;;;12.03;6.70;;;14.90;99.90;;;;;;5030847;28;20553;-53
2023/07/03 03:48:58;;;;;;;11.27;6.47;;;14.90;99.90;;;;;;5029325;28;20557;-56
2023/07/03 03:51:24;;;;;;;15.50;7.53;;;14.90;99.90;;;;;;5030641;28;20678;-55
2023/07/03 03:53:50;;;;;;;15.03;6.30;;;14.90;99.90;;;;;;5029729;28;21389;-54
2023/07/03 03:56:19;;;;;;;15.27;6.77;;;14.90;99.90;;;;;;5036768;28;20545;-53
2023/07/03 03:58:46;;;;;;;13.70;8.23;;;15.00;99.90;;;;;;5029052;28;20815;-54
2023/07/03 04:01:14;;;;;;;14.60;7.00;;;15.00;99.90;;;;;;5031774;28;20473;-54
2023/07/03 04:03:40;;;;;;;11.70;6.70;;;15.00;99.90;;;;;;5026515;28;20606;-53
2023/07/03 04:06:08;;;;;;;14.07;6.53;;;15.00;99.90;;;;;;5028383;28;20550;-54
2023/07/03 04:08:35;;;;;;;10.67;5.90;;;15.00;99.90;;;;;;5031426;28;20450;-53
2023/07/03 04:11:03;;;;;;;21.07;7.70;;;15.10;99.90;;;;;;5025440;28;20849;-52
2023/07/03 04:13:29;;;;;;;12.53;7.00;;;15.10;99.90;;;;;;5031592;28;20443;-52
2023/07/03 04:16:01;;;;;;;12.97;6.67;;;15.10;99.90;;;;;;5031485;28;20494;-55
2023/07/03 04:18:30;;;;;;;11.57;6.90;;;15.10;99.90;;;;;;5031877;28;20455;-54
2023/07/03 04:20:57;;;;;;;17.97;6.70;;;15.20;99.90;;;;;;5029529;28;20500;-55
2023/07/03 04:23:25;;;;;;;14.53;7.63;;;15.20;99.90;;;;;;5049310;22;20593;-52
2023/07/03 04:25:52;;;;;;;14.10;6.80;;;15.20;99.90;;;;;;5030216;28;20538;-53
2023/07/03 04:28:20;;;;;;;9.97;6.20;;;15.20;99.90;;;;;;5031551;28;20513;-52
2023/07/03 04:30:47;;;;;;;9.87;6.23;;;15.30;99.90;;;;;;5030229;28;20554;-50
2023/07/03 04:33:14;;;;;;;10.83;5.50;;;15.30;99.90;;;;;;5030582;28;20536;-51
2023/07/03 04:35:43;;;;;;;10.73;6.00;;;15.30;99.90;;;;;;5023311;28;20458;-52
2023/07/03 04:38:10;;;;;;;17.93;6.37;;;15.40;99.90;;;;;;5022638;28;20953;-52
2023/07/03 04:40:37;;;;;;;23.47;7.60;;;15.40;99.90;;;;;;5023773;28;20968;-53
2023/07/03 04:43:06;;;;;;;13.80;6.97;;;15.40;99.90;;;;;;5025373;28;20550;-52
2023/07/03 04:45:34;;;;;;;15.20;6.90;;;15.40;99.90;;;;;;5028514;28;20489;-52
2023/07/03 04:48:00;;;;;;;12.13;7.00;;;15.40;81.40;;;;;;5032340;28;20540;-52
2023/07/03 04:50:27;;;;;;;17.30;6.47;;;15.50;27.50;;;;;;5030687;28;20550;-51
2023/07/03 04:52:55;;;;;;;14.70;7.27;;;15.50;82.40;;;;;;5030907;28;20521;-52
2023/07/03 04:55:22;;;;;;;12.07;6.50;;;15.50;22.90;;;;;;5027191;28;20897;-52
2023/07/03 04:57:48;;;;;;;10.97;6.93;;;15.50;22.20;;;;;;5028032;28;20869;-51
2023/07/03 05:00:18;;;;;;;14.47;6.37;;;15.60;24.80;;;;;;5027800;28;20486;-51
2023/07/03 05:02:46;;;;;;;10.60;6.00;;;15.70;23.80;;;;;;5024975;28;20482;-51
2023/07/03 05:05:14;;;;;;;17.47;6.87;;;15.70;24.90;;;;;;5028036;28;20561;-50
2023/07/03 05:07:41;;;;;;;18.13;6.27;;;15.80;22.10;;;;;;5030324;28;20513;-50
2023/07/03 05:10:12;;;;;;;8.73;5.57;;;15.80;30.10;;;;;;5029079;28;20887;-51
2023/07/03 05:12:39;;;;;;;13.47;6.00;;;15.80;32.40;;;;;;5026771;28;20482;-51
2023/07/03 05:15:08;;;;;;;15.97;5.83;;;15.90;34.00;;;;;;5030490;28;20457;-51
2023/07/03 05:17:38;;;;;;;14.60;6.47;;;15.90;33.80;;;;;;5029279;28;20491;-52
2023/07/03 05:20:08;;;;;;;12.40;5.70;;;15.90;44.00;;;;;;5020835;28;20469;-50
2023/07/03 05:22:35;;;;;;;9.23;5.57;;;15.90;50.00;;;;;;5027802;28;20486;-51
2023/07/03 05:25:02;;;;;;;13.17;6.83;;;16.00;49.40;;;;;;5026671;28;20522;-51
2023/07/03 05:27:30;;;;;;;11.70;6.47;;;16.00;47.10;;;;;;5030576;28;20486;-51
2023/07/03 05:29:57;;;;;;;12.53;7.07;;;16.00;53.00;;;;;;5027145;28;21001;-51
2023/07/03 05:32:24;;;;;;;15.90;6.43;;;16.10;56.00;;;;;;5021978;28;20506;-51
2023/07/03 05:34:51;;;;;;;25.57;6.50;;;16.10;55.90;;;;;;5017461;28;20543;-51
2023/07/03 05:37:18;;;;;;;9.70;6.00;;;16.10;58.20;;;;;;5026061;28;20498;-51
2023/07/03 05:39:46;;;;;;;14.67;6.90;;;16.10;55.40;;;;;;5030882;28;20802;-51
2023/07/03 05:42:13;;;;;;;16.13;7.07;;;16.10;59.60;;;;;;5020653;28;20467;-52
2023/07/03 05:44:40;;;;;;;12.47;5.93;;;16.20;53.20;;;;;;5028962;28;20937;-52
2023/07/03 05:47:07;;;;;;;12.37;6.50;;;16.20;51.00;;;;;;5031131;28;20501;-51
2023/07/03 05:49:34;;;;;;;14.57;7.47;;;16.30;61.70;;;;;;5032823;28;20543;-51
2023/07/03 05:52:00;;;;;;;17.10;7.43;;;16.30;60.30;;;;;;5027022;28;20582;-51
2023/07/03 05:54:27;;;;;;;16.47;7.23;;;16.30;49.80;;;;;;5028854;28;20467;-51
2023/07/03 05:56:57;;;;;;;22.43;7.27;;;16.30;66.30;;;;;;5031087;28;20550;-52
2023/07/03 05:59:24;;;;;;;22.33;8.03;;;16.40;58.60;;;;;;5033826;28;20987;-51
2023/07/03 06:01:53;;;;;;;14.37;7.00;;;16.50;68.50;;;;;;5033374;28;21184;-52
2023/07/03 06:04:22;;;;;;;21.37;7.33;;;16.60;66.30;;;;;;5031184;28;20506;-51
2023/07/03 06:06:49;;;;;;;11.90;6.57;;;16.70;66.70;;;;;;5032895;28;20578;-51
2023/07/03 06:09:15;;;;;;;10.27;6.17;;;16.80;79.20;;;;;;5033018;28;21040;-53
2023/07/03 06:11:42;;;;;;;19.03;6.80;;;16.80;76.20;;;;;;5032019;28;20521;-51
2023/07/03 06:14:15;;;;;;;17.30;7.47;;;16.90;80.90;;;;;;5029079;28;20494;-51
2023/07/03 06:16:42;;;;;;;13.80;6.40;;;17.00;77.60;;;;;;5030841;28;20836;-50
2023/07/03 06:19:10;;;;;;;11.13;6.47;;;17.00;79.10;;;;;;5032234;28;20455;-50
2023/07/03 06:21:37;;;;;;;18.70;6.93;;;17.10;70.40;;;;;;5030030;28;20491;-51
2023/07/03 06:24:05;;;;;;;14.37;7.70;;;17.10;79.40;;;;;;5033171;28;20478;-51
2023/07/03 06:26:33;;;;;;;10.80;6.60;;;17.20;81.10;;;;;;5030043;28;21173;-51
2023/07/03 06:28:59;;;;;;;15.37;6.97;;;17.20;98.10;;;;;;5029798;28;20944;-51
2023/07/03 06:31:26;;;;;;;13.00;6.73;;;17.20;95.60;;;;;;5033157;28;20518;-51
2023/07/03 06:33:53;;;;;;;16.33;6.77;;;17.10;92.00;;;;;;5031796;28;20949;-51
2023/07/03 06:36:21;;;;;;;11.90;6.20;;;17.20;84.60;;;;;;5033006;28;20501;-51
2023/07/03 06:38:48;;;;;;;12.87;6.50;;;17.20;83.40;;;;;;5033597;28;20442;-51
2023/07/03 06:41:14;;;;;;;14.90;6.10;;;17.40;92.20;;;;;;5017921;28;20562;-51
2023/07/03 06:43:41;;;;;;;16.70;7.20;;;17.40;99.90;;;;;;5025639;28;20534;-50
2023/07/03 06:46:10;;;;;;;17.93;6.80;;;17.50;99.90;;;;;;5029457;28;20459;-51
2023/07/03 06:48:37;;;;;;;16.77;5.90;;;17.50;98.10;;;;;;5031597;28;20477;-50
2023/07/03 06:51:04;;;;;;;21.90;6.77;;;17.50;99.90;;;;;;5022833;28;20558;-51
2023/07/03 06:53:32;;;;;;;20.63;7.10;;;17.50;99.90;;;;;;5030098;28;20552;-51
2023/07/03 06:55:59;;;;;;;13.40;6.43;;;17.50;99.90;;;;;;5029038;28;20490;-52
2023/07/03 06:58:26;;;;;;;35.10;7.20;;;17.50;99.90;;;;;;5031587;28;20501;-51
2023/07/03 07:00:53;;;;;;;14.07;6.87;;;17.50;99.90;;;;;;5031274;28;20493;-52
2023/07/03 07:03:19;;;;;;;13.47;6.17;;;17.50;99.90;;;;;;5030275;28;20479;-51
2023/07/03 07:05:46;;;;;;;15.97;6.97;;;17.60;99.90;;;;;;5023938;28;20645;-51
2023/07/03 07:08:16;;;;;;;19.33;7.50;;;17.60;99.90;;;;;;5032552;28;20482;-51
2023/07/03 07:10:44;;;;;;;12.17;6.67;;;17.70;99.90;;;;;;5033797;28;20520;-52
2023/07/03 07:13:11;;;;;;;11.93;5.97;;;17.80;99.10;;;;;;5024091;28;20482;-51
2023/07/03 07:15:38;;;;;;;29.87;6.90;;;17.90;99.90;;;;;;5031928;28;20553;-52
2023/07/03 07:18:07;;;;;;;20.50;6.87;;;17.80;99.90;;;;;;5032920;28;20470;-50
2023/07/03 07:20:37;;;;;;;15.13;6.27;;;17.80;99.90;;;;;;5029263;28;20616;-50
2023/07/03 07:23:03;;;;;;;10.27;5.77;;;17.90;95.80;;;;;;5028161;28;20490;-51
2023/07/03 07:25:30;;;;;;;14.30;6.00;;;18.10;99.40;;;;;;5030145;28;21095;-52
2023/07/03 07:27:58;;;;;;;11.20;5.90;;;18.10;98.80;;;;;;5031645;28;20972;-51
2023/07/03 07:30:24;;;;;;;19.50;5.83;;;18.10;99.90;;;;;;5030411;28;21928;-51
2023/07/03 07:32:51;;;;;;;13.57;5.67;;;18.10;99.90;;;;;;5027223;28;20514;-50
2023/07/03 07:35:18;;;;;;;14.20;5.50;;;18.10;99.90;;;;;;5028797;28;20466;-51
2023/07/03 07:37:44;;;;;;;14.23;5.70;;;18.10;99.90;;;;;;5030938;28;20502;-51
2023/07/03 07:40:12;;;;;;;12.30;5.93;;;18.20;99.90;;;;;;5029023;28;20463;-50
2023/07/03 07:42:39;;;;;;;14.97;6.70;;;18.30;99.90;;;;;;5030137;28;21019;-51
2023/07/03 07:45:08;;;;;;;17.43;6.20;;;18.40;99.90;;;;;;5028235;28;20514;-51
2023/07/03 07:47:34;;;;;;;12.33;5.93;;;18.40;99.90;;;;;;5029111;28;20551;-50
2023/07/03 07:50:01;;;;;;;10.13;5.27;;;18.40;99.90;;;;;;5028711;28;20554;-52
2023/07/03 07:52:28;;;;;;;14.77;5.30;;;18.30;99.90;;;;;;5028895;28;20581;-51
2023/07/03 07:54:54;;;;;;;11.93;5.47;;;18.30;99.90;;;;;;5029446;28;20455;-51
2023/07/03 07:57:21;;;;;;;14.43;5.43;;;18.40;99.90;;;;;;5024091;28;20550;-51
2023/07/03 07:59:48;;;;;;;19.70;6.07;;;18.40;99.90;;;;;;5030979;28;20526;-51
2023/07/03 08:02:15;;;;;;;11.50;5.10;;;18.50;99.90;;;;;;5031480;28;20494;-51
2023/07/03 08:04:43;;;;;;;14.80;5.30;;;18.60;99.90;;;;;;5029969;28;20478;-52
2023/07/03 08:07:09;;;;;;;17.73;5.40;;;18.60;99.90;;;;;;5016757;28;20553;-50
2023/07/03 08:09:36;;;;;;;18.37;5.97;;;18.60;99.90;;;;;;5022163;28;20562;-52
2023/07/03 08:12:03;;;;;;;16.87;5.93;;;18.60;99.90;;;;;;5026249;28;21278;-51
2023/07/03 08:14:30;;;;;;;21.80;6.10;;;18.60;99.90;;;;;;5027461;28;21024;-51
2023/07/03 08:16:56;;;;;;;17.60;6.20;;;18.60;99.90;;;;;;5023967;28;20558;-50
2023/07/03 08:19:24;;;;;;;12.30;5.97;;;18.60;99.90;;;;;;5022087;28;20562;-51
2023/07/03 08:21:51;;;;;;;15.27;5.57;;;18.70;99.90;;;;;;5023175;28;20565;-52
2023/07/03 08:24:19;;;;;;;12.70;5.30;;;18.80;99.90;;;;;;5025723;28;20549;-53
2023/07/03 08:26:49;;;;;;;10.90;5.40;;;18.90;99.90;;;;;;5026809;28;20841;-53
2023/07/03 08:29:15;;;;;;;16.33;5.33;;;19.00;99.90;;;;;;5029699;28;20984;-54
2023/07/03 08:31:42;;;;;;;9.53;4.97;;;19.10;99.90;;;;;;5028049;28;21042;-52
2023/07/03 08:34:10;;;;;;;13.03;5.33;;;19.30;99.90;;;;;;5023528;28;20494;-52
2023/07/03 08:36:38;;;;;;;20.53;4.90;;;19.40;99.90;;;;;;5030102;28;20490;-53
2023/07/03 08:39:05;;;;;;;11.87;5.60;;;19.60;99.90;;;;;;5030112;28;20501;-52
2023/07/03 08:41:35;;;;;;;13.23;5.60;;;19.70;99.90;;;;;;5028412;28;20463;-52
2023/07/03 08:44:02;;;;;;;14.30;4.87;;;19.80;99.90;;;;;;5020439;28;21036;-52
2023/07/03 08:46:33;;;;;;;11.20;4.37;;;19.70;99.90;;;;;;5026719;28;20539;-52
2023/07/03 08:49:03;;;;;;;14.00;5.10;;;19.70;99.90;;;;;;5023767;28;20546;-51
2023/07/03 08:51:33;;;;;;;11.57;4.93;;;19.70;99.90;;;;;;5029786;28;20490;-52
2023/07/03 08:54:06;;;;;;;8.50;4.93;;;19.70;99.90;;;;;;5027411;28;20494;-52
2023/07/03 08:56:34;;;;;;;11.97;5.10;;;19.90;99.90;;;;;;5027319;28;20537;-52
2023/07/03 08:59:03;;;;;;;13.10;5.40;;;20.00;99.90;;;;;;5029309;28;20547;-53
2023/07/03 09:01:37;;;;;;;14.40;5.07;;;20.00;99.90;;;;;;5029578;28;20469;-52
2023/07/03 09:04:14;;;;;;;14.20;5.50;;;19.90;99.90;;;;;;5030897;28;21119;-53
2023/07/03 09:06:47;;;;;;;11.43;5.60;;;19.70;99.90;;;;;;5025812;28;20557;-53
2023/07/03 09:09:23;;;;;;;14.40;4.60;;;19.50;99.90;;;;;;5022097;28;20537;-51
2023/07/03 09:12:01;;;;;;;18.23;5.00;;;19.30;99.90;;;;;;5028088;28;20893;-53
2023/07/03 09:14:32;;;;;;;14.53;5.57;;;19.10;99.90;;;;;;5031536;28;20489;-53
2023/07/03 09:17:00;;;;;;;8.93;4.17;;;19.10;99.90;;;;;;5030429;28;20895;-52
2023/07/03 09:19:28;;;;;;;17.13;5.60;;;19.10;99.90;;;;;;5031496;28;21011;-52
2023/07/03 09:22:00;;;;;;;7.43;4.47;;;19.10;99.90;;;;;;5026313;28;20526;-52
2023/07/03 09:24:31;;;;;;;16.10;5.50;;;19.10;99.90;;;;;;5025072;28;20493;-52
2023/07/03 09:27:05;;;;;;;11.57;5.17;;;19.20;99.90;;;;;;5031426;28;20513;-50
2023/07/03 09:29:34;;;;;;;14.17;4.50;;;19.30;99.90;;;;;;5029909;28;20463;-50
2023/07/03 09:32:00;;;;;;;20.33;4.90;;;19.50;99.90;;;;;;5031838;28;20478;-50
2023/07/03 09:34:27;;;;;;;15.17;5.37;;;19.60;99.90;;;;;;5029727;28;20467;-51
2023/07/03 09:36:58;;;;;;;8.00;4.40;;;19.90;99.90;;;;;;5030392;28;21006;-51
2023/07/03 09:39:26;;;;;;;10.37;4.90;;;20.20;99.90;;;;;;5029309;28;20972;-51
2023/07/03 09:42:06;;;;;;;13.97;4.50;;;20.30;99.90;;;;;;5032608;28;20493;-52
2023/07/03 09:44:32;;;;;;;15.67;5.30;;;20.30;99.90;;;;;;5031948;28;20475;-52
2023/07/03 09:47:00;;;;;;;13.00;4.50;;;20.30;99.90;;;;;;5033030;28;20502;-52
2023/07/03 09:49:29;;;;;;;10.97;4.60;;;20.20;99.90;;;;;;5031257;28;21047;-51
2023/07/03 09:51:59;;;;;;;19.53;4.50;;;20.00;99.90;;;;;;5030102;28;20573;-52
2023/07/03 09:54:29;;;;;;;7.23;4.00;;;20.00;99.90;;;;;;5028137;28;20467;-52
2023/07/03 09:56:57;;;;;;;12.33;4.97;;;20.10;99.90;;;;;;5030075;28;20459;-52
2023/07/03 09:59:25;;;;;;;10.87;5.23;;;20.30;99.90;;;;;;5030944;28;20968;-52
2023/07/03 10:01:56;;;;;;;11.60;4.67;;;20.40;99.90;;;;;;5028896;28;20497;-52
2023/07/03 10:04:22;;;;;;;10.87;4.37;;;20.30;99.90;;;;;;5028600;28;20467;-52
2023/07/03 10:06:58;;;;;;;11.40;4.37;;;20.10;99.90;;;;;;5033280;28;20934;-51
2023/07/03 10:09:30;;;;;;;10.67;4.73;;;20.40;99.90;;;;;;5029466;28;20520;-50
2023/07/03 10:12:03;;;;;;;8.63;4.13;;;20.30;99.90;;;;;;5031445;28;20505;-50
2023/07/03 10:14:37;;;;;;;12.77;4.27;;;20.30;99.90;;;;;;5031108;28;20466;-51
2023/07/03 10:17:12;;;;;;;9.93;3.77;;;20.40;99.90;;;;;;5031197;28;20852;-51
2023/07/03 10:19:40;;;;;;;6.63;3.67;;;20.20;99.90;;;;;;5031305;28;20443;-51
2023/07/03 10:22:07;;;;;;;11.60;4.53;;;20.10;99.90;;;;;;5030952;28;20925;-51
2023/07/03 10:24:35;;;;;;;13.50;4.80;;;20.20;99.90;;;;;;5032939;28;20499;-51
2023/07/03 10:27:04;;;;;;;6.13;3.43;;;20.20;99.90;;;;;;5029377;28;20868;-51
2023/07/03 10:29:37;;;;;;;12.13;4.37;;;20.10;99.90;;;;;;5031939;28;21178;-50
2023/07/03 10:32:07;;;;;;;12.70;5.43;;;20.10;99.90;;;;;;5030863;28;20562;-51
2023/07/03 10:34:39;;;;;;;10.93;3.63;;;20.10;99.90;;;;;;5030821;28;20491;-51
2023/07/03 10:37:10;;;;;;;11.50;3.93;;;20.00;99.90;;;;;;5030319;28;20539;-50
2023/07/03 10:39:42;;;;;;;10.53;4.03;;;19.90;99.90;;;;;;5023004;28;20466;-51
2023/07/03 10:42:18;;;;;;;8.27;4.37;;;19.80;99.90;;;;;;5026304;28;20489;-51
2023/07/03 10:44:47;;;;;;;15.57;5.07;;;19.80;99.90;;;;;;5028834;28;20467;-51
2023/07/03 10:47:21;;;;;;;12.53;4.57;;;19.90;99.90;;;;;;5029762;28;20518;-51
2023/07/03 10:49:47;;;;;;;9.00;3.80;;;19.90;99.90;;;;;;5029282;28;20487;-51
2023/07/03 10:52:25;;;;;;;5.37;3.50;;;20.00;99.90;;;;;;5031582;28;20533;-51
2023/07/03 10:54:57;;;;;;;9.60;3.90;;;20.10;99.90;;;;;;5030009;28;20474;-52
2023/07/03 10:57:31;;;;;;;12.30;3.63;;;20.20;99.90;;;;;;5030632;28;20547;-51
2023/07/03 11:00:00;;;;;;;9.27;3.67;;;20.20;99.90;;;;;;5029835;28;20477;-51
2023/07/03 11:02:35;;;;;;;9.43;4.50;;;20.20;99.90;;;;;;5029323;28;20929;-49
2023/07/03 11:05:08;;;;;;;10.10;3.60;;;20.10;99.90;;;;;;5030184;28;20581;-50
2023/07/03 11:07:47;;;;;;;10.70;4.00;;;20.00;99.90;;;;;;5028002;28;20455;-50
2023/07/03 11:10:22;;;;;;;13.77;4.50;;;19.80;99.90;;;;;;5021538;28;20490;-50
2023/07/03 11:12:58;;;;;;;13.13;4.07;;;19.70;99.90;;;;;;5029413;28;20486;-50
2023/07/03 11:15:35;;;;;;;11.90;3.80;;;19.50;99.90;;;;;;5029346;28;21011;-51
2023/07/03 11:18:16;;;;;;;10.80;4.47;;;19.50;99.90;;;;;;5029019;28;20486;-51
2023/07/03 11:20:48;;;;;;;11.80;4.13;;;19.60;99.90;;;;;;5030480;28;20538;-51
2023/07/03 11:23:20;;;;;;;11.27;4.30;;;19.90;99.90;;;;;;5026957;28;20514;-52
2023/07/03 11:25:53;;;;;;;10.40;5.10;;;20.30;99.90;;;;;;5026120;28;20494;-51
2023/07/03 11:28:30;;;;;;;14.20;4.90;;;20.40;99.90;;;;;;5029226;28;20883;-51
2023/07/03 11:30:59;;;;;;;15.63;4.20;;;20.60;99.90;;;;;;5029494;28;20494;-52
2023/07/03 11:33:26;;;;;;;15.70;4.53;;;20.60;99.90;;;;;;5026710;28;21003;-52
2023/07/03 11:35:54;;;;;;;21.10;3.47;;;20.50;99.90;;;;;;5029607;28;20920;-51
2023/07/03 11:38:21;;;;;;;10.60;4.50;;;20.40;99.90;;;;;;5028342;28;20545;-50
2023/07/03 11:41:02;;;;;;;13.40;4.10;;;20.20;99.90;;;;;;5032028;28;20443;-51
2023/07/03 11:43:36;;;;;;;8.80;4.03;;;20.20;99.90;;;;;;5029117;28;20598;-51
2023/07/03 11:46:12;;;;;;;9.33;3.70;;;20.10;99.90;;;;;;5030364;28;20984;-51
2023/07/03 11:48:46;;;;;;;13.03;3.83;;;20.20;99.90;;;;;;5031592;28;20530;-51
2023/07/03 11:51:15;;;;;;;7.57;3.00;;;20.40;99.90;;;;;;5024899;28;20443;-50
2023/07/03 11:53:45;;;;;;;10.60;4.20;;;20.80;99.90;;;;;;5030228;28;20994;-51
2023/07/03 11:56:14;;;;;;;15.57;4.20;;;20.90;99.90;;;;;;5030925;28;20443;-51
2023/07/03 11:58:44;;;;;;;13.80;3.63;;;21.20;99.90;;;;;;5028993;28;20505;-52
2023/07/03 12:01:30;;;;;;;13.00;3.60;;;21.30;99.90;;;;;;5026656;28;20501;-50
2023/07/03 12:03:58;;;;;;;13.90;3.50;;;21.00;99.90;;;;;;5028825;28;20463;-51
2023/07/03 12:06:45;;;;;;;14.27;3.77;;;20.90;99.90;;;;;;5024172;28;21011;-53
2023/07/03 12:09:29;;;;;;;12.73;4.50;;;20.60;99.90;;;;;;5026652;28;20463;-52
2023/07/03 12:12:18;;;;;;;10.43;4.33;;;20.40;99.90;;;;;;5029397;28;20479;-51
2023/07/03 12:14:56;;;;;;;19.07;5.60;;;20.10;99.90;;;;;;5027756;28;20458;-52
2023/07/03 12:17:25;;;;;;;15.70;4.13;;;20.00;99.90;;;;;;5028949;28;20500;-51
2023/07/03 12:19:55;;;;;;;14.77;3.43;;;20.00;99.90;;;;;;5026595;28;21042;-51
2023/07/03 12:22:26;;;;;;;14.03;4.03;;;19.80;99.90;;;;;;5025504;28;21023;-52
2023/07/03 12:25:01;;;;;;;10.30;3.50;;;19.80;99.90;;;;;;5029833;28;20538;-51
2023/07/03 12:27:27;;;;;;;17.30;4.33;;;19.70;99.90;;;;;;5031664;28;21007;-51
2023/07/03 12:29:56;;;;;;;29.67;4.63;;;19.60;99.90;;;;;;5029196;28;20521;-52
2023/07/03 12:32:25;;;;;;;20.53;5.17;;;19.50;99.90;;;;;;5028234;28;20577;-51
2023/07/03 12:34:51;;;;;;;21.03;5.50;;;19.50;99.90;;;;;;5028212;28;20541;-50
2023/07/03 12:37:21;;;;;;;13.50;4.00;;;19.30;99.90;;;;;;5031680;28;20462;-50
2023/07/03 12:39:49;;;;;;;15.00;4.60;;;19.30;99.90;;;;;;5030402;28;20469;-51
2023/07/03 12:42:21;;;;;;;26.43;5.50;;;19.30;99.90;;;;;;5031885;28;20619;-51
2023/07/03 12:44:47;;;;;;;32.77;6.47;;;19.30;99.90;;;;;;5031862;28;20449;-50
2023/07/03 12:47:18;;;;;;;18.67;4.57;;;19.40;99.90;;;;;;5032212;28;20565;-51